Branford, Connecticut
Current Conditions -  °F | °C
As of 10:53 PM on Saturday 25 Oct 2014 (Local Time) from KHVN Reporting Station
Broken Clouds Broken Clouds  
Wind Chill: 63°   Ceiling: 8000
Heat Index: 63°   Visibility: 10mi
Dew Point: 52°   Wind: 8mph
Humidity: 67%   Direction: 220°SW
Pressure: 29.56"   Gusts: NA
Location:  41.28°N, 72.82°W
Report Text: KHVN 260253Z AUTO 22007KT 10SM BKN080 17/11 A2956 RMK AO2 SLP010 T01720111 56018
Loading
Personal Weather Stations






























Interactive Weather Map
Tropical Storm Tracking
New forecast layout! Learn more

10-Day Weather Forecast

Advertisements
Track Severe Weather on mobile